Time;durP1;ratioP1;P1;durP2;ratioP2;P2;SDS_P1;SDS_P2;PMS_P1;PMS_P2;Temp;Humidity;BMP_temperature;BMP_pressure;BME280_temperature;BME280_humidity;BME280_pressure;Samples;Min_cycle;Max_cycle;Signal;HPM_P1;HPM_P2
2022/04/05 00:01:23;;;;;;;24.73;19.02;;;11.80;23.00;;;;;;4973174;28;20381;-42
2022/04/05 00:03:48;;;;;;;25.53;19.70;;;11.80;23.10;;;;;;4972529;28;20026;-42
2022/04/05 00:06:14;;;;;;;24.70;19.90;;;11.80;23.00;;;;;;4973128;28;20110;-42
2022/04/05 00:08:40;;;;;;;23.15;19.17;;;11.70;23.30;;;;;;4973144;28;20094;-42
2022/04/05 00:11:06;;;;;;;25.53;20.13;;;11.70;23.60;;;;;;4971329;28;20118;-42
2022/04/05 00:13:31;;;;;;;24.27;19.40;;;11.60;23.80;;;;;;4973186;28;20506;-42
2022/04/05 00:15:57;;;;;;;24.40;19.47;;;11.60;23.60;;;;;;4954445;28;20039;-42
2022/04/05 00:18:23;;;;;;;23.20;19.65;;;11.50;23.90;;;;;;4972982;28;20496;-42
2022/04/05 00:20:48;;;;;;;26.52;20.38;;;11.60;24.00;;;;;;4972123;28;20027;-42
2022/04/05 00:23:14;;;;;;;26.70;19.98;;;11.60;24.00;;;;;;4972357;28;20481;-42
2022/04/05 00:25:40;;;;;;;24.00;19.77;;;11.50;24.30;;;;;;4972030;28;20503;-42
2022/04/05 00:28:06;;;;;;;26.23;20.20;;;11.50;24.30;;;;;;4972844;28;20031;-42
2022/04/05 00:30:32;;;;;;;24.20;18.77;;;11.60;24.40;;;;;;4970723;28;20540;-43
2022/04/05 00:32:57;;;;;;;24.33;19.93;;;11.50;24.20;;;;;;4972942;28;20373;-42
2022/04/05 00:35:23;;;;;;;25.52;19.73;;;11.50;24.20;;;;;;4971525;28;20130;-42
2022/04/05 00:37:50;;;;;;;24.67;19.87;;;11.50;24.40;;;;;;4971796;28;20141;-43
2022/04/05 00:40:30;;;;;;;25.30;19.27;;;11.50;24.10;;;;;;4971881;28;20042;-43
2022/04/05 00:42:57;;;;;;;21.67;17.98;;;11.60;24.50;;;;;;4971908;28;20035;-42
2022/04/05 00:45:22;;;;;;;24.07;19.03;;;11.50;24.40;;;;;;4972583;28;20054;-46
2022/04/05 00:47:50;;;;;;;23.13;19.65;;;11.50;24.70;;;;;;4972004;28;20058;-43
2022/04/05 00:50:21;;;;;;;24.95;20.40;;;11.40;24.80;;;;;;4954822;28;20031;-42
2022/04/05 00:52:47;;;;;;;24.52;19.45;;;11.50;25.00;;;;;;4969550;28;20027;-42
2022/04/05 00:55:19;;;;;;;27.35;19.70;;;11.40;25.00;;;;;;4972519;28;20122;-42
2022/04/05 00:58:02;;;;;;;23.40;19.70;;;11.50;25.10;;;;;;4972970;28;20431;-42
2022/04/05 01:00:28;;;;;;;26.07;20.80;;;11.50;24.60;;;;;;4975714;28;20117;-42
2022/04/05 01:02:55;;;;;;;24.25;19.02;;;11.40;24.80;;;;;;4975214;28;20027;-43
2022/04/05 01:05:23;;;;;;;25.70;18.95;;;11.40;25.20;;;;;;4976369;28;20038;-42
2022/04/05 01:07:51;;;;;;;25.30;19.90;;;11.30;24.80;;;;;;4975191;28;20491;-43
2022/04/05 01:10:17;;;;;;;25.60;20.35;;;11.50;24.20;;;;;;4976085;28;20060;-44
2022/04/05 01:12:42;;;;;;;27.10;20.35;;;11.30;24.00;;;;;;4975174;28;20227;-44
2022/04/05 01:15:17;;;;;;;29.50;21.23;;;11.40;24.40;;;;;;4976005;28;20030;-43
2022/04/05 01:17:43;;;;;;;;;;;11.40;24.50;;;;;;4975412;28;20582;-43
2022/04/05 01:20:09;;;;;;;26.13;20.53;;;11.30;24.40;;;;;;4975580;28;19906;-42
2022/04/05 01:22:35;;;;;;;26.88;20.67;;;11.30;24.40;;;;;;4973980;28;20049;-43
2022/04/05 01:25:00;;;;;;;26.33;19.55;;;11.20;24.10;;;;;;4975415;28;20023;-43
2022/04/05 01:27:27;;;;;;;26.83;21.40;;;11.30;24.30;;;;;;4974475;28;20023;-44
2022/04/05 01:29:53;;;;;;;22.03;19.33;;;11.30;24.10;;;;;;4975703;28;20480;-43
2022/04/05 01:32:19;;;;;;;25.77;20.57;;;11.20;24.30;;;;;;4974852;28;20097;-42
2022/04/05 01:34:45;;;;;;;25.67;20.65;;;11.20;24.20;;;;;;4975615;28;20031;-42
2022/04/05 01:37:11;;;;;;;25.13;19.93;;;11.10;24.60;;;;;;4974677;28;20034;-42
2022/04/05 01:39:38;;;;;;;24.80;19.83;;;11.20;24.50;;;;;;4975771;28;20030;-42
2022/04/05 01:42:12;;;;;;;25.40;21.07;;;11.10;25.00;;;;;;4974912;28;20038;-43
2022/04/05 01:44:38;;;;;;;25.17;21.80;;;11.10;25.10;;;;;;4975683;28;20019;-43
2022/04/05 01:47:15;;;;;;;23.77;21.27;;;11.00;25.20;;;;;;4974382;28;20333;-42
2022/04/05 01:49:43;;;;;;;25.67;20.40;;;11.10;25.10;;;;;;4974050;28;20026;-43
2022/04/05 01:52:10;;;;;;;24.90;21.27;;;11.00;25.30;;;;;;4973557;28;20050;-42
2022/04/05 01:54:36;;;;;;;27.60;20.23;;;11.00;25.40;;;;;;4975572;28;20054;-43
2022/04/05 01:57:03;;;;;;;27.13;21.73;;;11.10;25.20;;;;;;4974727;28;20108;-42
2022/04/05 01:59:30;;;;;;;24.00;20.90;;;11.00;25.40;;;;;;4975128;28;20022;-43
2022/04/05 02:01:56;;;;;;;24.13;20.63;;;11.00;25.40;;;;;;4957551;28;20087;-42
2022/04/05 02:04:22;;;;;;;25.30;20.93;;;11.00;25.50;;;;;;4974910;28;20613;-43
2022/04/05 02:06:48;;;;;;;26.23;21.63;;;11.00;25.60;;;;;;4974252;28;20026;-42
2022/04/05 02:09:16;;;;;;;26.53;21.67;;;10.90;26.00;;;;;;4973646;28;20116;-44
2022/04/05 02:11:46;;;;;;;28.13;21.43;;;10.90;26.40;;;;;;4974421;28;20027;-44
2022/04/05 02:14:13;;;;;;;28.73;22.77;;;10.90;26.30;;;;;;4955622;29;20028;-42
2022/04/05 02:16:39;;;;;;;24.90;21.50;;;10.90;26.60;;;;;;4963830;28;20050;-43
2022/04/05 02:19:05;;;;;;;27.20;22.20;;;10.80;26.60;;;;;;4972331;28;20027;-43
2022/04/05 02:21:31;;;;;;;27.53;21.57;;;10.90;26.50;;;;;;4974806;28;20393;-42
2022/04/05 02:23:57;;;;;;;23.73;20.97;;;10.90;26.60;;;;;;4971559;28;20493;-43
2022/04/05 02:26:22;;;;;;;27.07;21.93;;;10.90;26.40;;;;;;4974855;28;20158;-44
2022/04/05 02:28:48;;;;;;;27.10;20.70;;;10.80;26.60;;;;;;4973203;28;20027;-42
2022/04/05 02:31:15;;;;;;;27.23;21.80;;;10.80;26.90;;;;;;4957333;28;20436;-42
2022/04/05 02:33:41;;;;;;;27.90;21.07;;;10.70;26.90;;;;;;4973945;28;20018;-45
2022/04/05 02:36:07;;;;;;;27.03;20.63;;;10.70;26.90;;;;;;4974688;28;20081;-42
2022/04/05 02:38:33;;;;;;;27.43;22.27;;;10.70;27.40;;;;;;4973323;28;20106;-42
2022/04/05 02:40:59;;;;;;;27.83;22.30;;;10.60;27.10;;;;;;4956503;28;20066;-42
2022/04/05 02:43:25;;;;;;;24.60;20.50;;;10.60;27.10;;;;;;4973145;28;20058;-42
2022/04/05 02:45:55;;;;;;;23.77;20.30;;;10.70;27.30;;;;;;4973668;28;20038;-42
2022/04/05 02:48:24;;;;;;;25.53;21.07;;;10.70;27.30;;;;;;4972226;28;20492;-42
2022/04/05 02:50:50;;;;;;;25.17;21.40;;;10.60;27.60;;;;;;4974391;28;20031;-42
2022/04/05 02:53:15;;;;;;;23.23;20.50;;;10.60;27.70;;;;;;4973780;28;20480;-42
2022/04/05 02:55:42;;;;;;;23.23;20.23;;;10.60;27.60;;;;;;4974318;28;20031;-42
2022/04/05 02:58:08;;;;;;;24.37;20.57;;;10.50;28.20;;;;;;4973258;28;20476;-42
2022/04/05 03:00:35;;;;;;;23.70;19.57;;;10.50;28.10;;;;;;4974349;28;20035;-42
2022/04/05 03:03:01;;;;;;;22.17;19.77;;;10.50;27.90;;;;;;4973614;28;20376;-42
2022/04/05 03:05:27;;;;;;;24.17;20.27;;;10.60;27.90;;;;;;4973666;28;20034;-43
2022/04/05 03:07:52;;;;;;;23.87;20.10;;;10.50;28.10;;;;;;4974163;28;20075;-42
2022/04/05 03:10:18;;;;;;;22.27;18.67;;;10.50;28.40;;;;;;4973298;28;20499;-42
2022/04/05 03:12:44;;;;;;;23.70;20.03;;;10.40;28.20;;;;;;4972223;28;20023;-42
2022/04/05 03:15:10;;;;;;;26.63;21.37;;;10.50;28.40;;;;;;4972853;28;20179;-42
2022/04/05 03:17:41;;;;;;;22.63;20.07;;;10.50;28.40;;;;;;4973518;28;20050;-42
2022/04/05 03:20:10;;;;;;;25.27;20.10;;;10.50;28.40;;;;;;4972822;28;20132;-42
2022/04/05 03:22:35;;;;;;;23.00;19.23;;;10.40;28.70;;;;;;4973594;28;20061;-42
2022/04/05 03:25:01;;;;;;;25.50;20.50;;;10.40;28.90;;;;;;4972902;28;20508;-42
2022/04/05 03:27:27;;;;;;;24.70;20.60;;;10.40;28.90;;;;;;4972262;28;20125;-42
2022/04/05 03:29:52;;;;;;;27.90;20.80;;;10.40;29.10;;;;;;4972951;28;20050;-43
2022/04/05 03:32:18;;;;;;;23.73;19.57;;;10.40;29.10;;;;;;4973481;28;20473;-42
2022/04/05 03:34:43;;;;;;;27.40;19.37;;;10.40;29.00;;;;;;4972530;28;20511;-42
2022/04/05 03:37:09;;;;;;;24.10;19.33;;;10.30;28.90;;;;;;4955157;28;20093;-42
2022/04/05 03:39:35;;;;;;;20.67;18.30;;;10.20;29.30;;;;;;4972157;28;20122;-42
2022/04/05 03:42:01;;;;;;;22.37;19.13;;;10.20;29.30;;;;;;4973554;28;20034;-42
2022/04/05 03:44:27;;;;;;;21.43;18.13;;;10.20;29.00;;;;;;4972708;28;20019;-41
2022/04/05 03:46:56;;;;;;;23.67;18.23;;;10.20;29.00;;;;;;4973193;28;20033;-42
2022/04/05 03:49:37;;;;;;;23.10;19.60;;;10.20;29.30;;;;;;4972573;28;20034;-43
2022/04/05 03:52:03;;;;;;;22.60;18.00;;;10.20;29.40;;;;;;4971916;28;20033;-43
2022/04/05 03:54:28;;;;;;;21.77;18.80;;;10.20;29.30;;;;;;4972651;28;20030;-43
2022/04/05 03:56:54;;;;;;;24.90;18.10;;;10.30;29.20;;;;;;4971680;28;20034;-42
2022/04/05 03:59:20;;;;;;;23.87;19.63;;;10.30;28.70;;;;;;4971178;28;20030;-42
2022/04/05 04:01:45;;;;;;;23.67;18.87;;;10.20;28.90;;;;;;4973082;28;20032;-43
2022/04/05 04:04:11;;;;;;;19.87;16.90;;;10.20;28.60;;;;;;4971894;28;20157;-42
2022/04/05 04:06:37;;;;;;;18.97;16.53;;;10.10;28.90;;;;;;4972309;28;20041;-42
2022/04/05 04:09:02;;;;;;;23.67;18.60;;;10.10;28.90;;;;;;4972445;28;20023;-43
2022/04/05 04:11:28;;;;;;;21.93;17.63;;;10.20;28.90;;;;;;4973537;28;20046;-42
2022/04/05 04:13:54;;;;;;;20.53;16.47;;;10.10;29.40;;;;;;4972283;28;20110;-43
2022/04/05 04:16:20;;;;;;;22.67;18.80;;;10.20;29.50;;;;;;4972815;28;20149;-42
2022/04/05 04:18:46;;;;;;;21.00;18.47;;;10.20;29.40;;;;;;4972391;28;20113;-42
2022/04/05 04:21:12;;;;;;;20.90;18.43;;;10.20;29.40;;;;;;4973283;28;20026;-43
2022/04/05 04:23:38;;;;;;;21.70;17.57;;;10.10;29.40;;;;;;4972293;28;20023;-43
2022/04/05 04:26:05;;;;;;;22.30;18.77;;;;;;;;;;4971415;28;20034;-43
2022/04/05 04:28:31;;;;;;;22.37;17.10;;;10.10;29.90;;;;;;4972544;28;20109;-43
2022/04/05 04:30:57;;;;;;;20.43;17.60;;;10.00;30.00;;;;;;4973245;28;20393;-43
2022/04/05 04:33:22;;;;;;;20.03;17.17;;;9.90;30.30;;;;;;4974740;28;20030;-42
2022/04/05 04:35:48;;;;;;;21.70;18.77;;;10.00;29.80;;;;;;4976117;28;20038;-46
2022/04/05 04:38:15;;;;;;;22.60;18.33;;;10.00;30.30;;;;;;4959372;28;20023;-43
2022/04/05 04:40:44;;;;;;;21.60;18.67;;;10.00;30.20;;;;;;4976049;28;20429;-43
2022/04/05 04:43:10;;;;;;;23.70;18.83;;;10.00;29.80;;;;;;4976264;28;20042;-43
2022/04/05 04:45:36;;;;;;;20.10;16.97;;;10.00;29.80;;;;;;4974308;28;20481;-42
2022/04/05 04:48:01;;;;;;;21.60;17.87;;;9.90;30.20;;;;;;4976595;28;20046;-43
2022/04/05 04:50:27;;;;;;;20.57;17.00;;;9.90;30.30;;;;;;4975613;28;20031;-45
2022/04/05 04:56:28;;;;;;;21.80;17.77;;;9.90;29.60;;;;;;4983551;28;20518;-42
2022/04/05 04:58:54;;;;;;;21.07;17.30;;;9.90;30.40;;;;;;4965366;28;20019;-43
2022/04/05 05:01:20;;;;;;;23.23;17.97;;;9.80;30.50;;;;;;4976200;28;20046;-42
2022/04/05 05:03:46;;;;;;;21.77;17.90;;;9.70;30.70;;;;;;4974885;28;20039;-41
2022/04/05 05:06:11;;;;;;;20.47;17.57;;;9.70;31.40;;;;;;4976393;28;20030;-41
2022/04/05 05:08:37;;;;;;;22.03;17.67;;;9.70;31.60;;;;;;4975026;28;20380;-42
2022/04/05 05:11:03;;;;;;;22.63;17.83;;;9.90;31.30;;;;;;4976256;28;20118;-43
2022/04/05 05:13:31;;;;;;;23.30;18.90;;;9.80;31.40;;;;;;4957945;28;20026;-43
2022/04/05 05:15:56;;;;;;;21.63;17.97;;;9.80;31.30;;;;;;4975871;28;20030;-42
2022/04/05 05:18:22;;;;;;;22.10;18.10;;;9.90;31.50;;;;;;4974662;28;20045;-43
2022/04/05 05:20:48;;;;;;;21.87;18.63;;;9.90;31.70;;;;;;4976009;28;20453;-43
2022/04/05 05:23:13;;;;;;;21.80;17.83;;;9.80;31.90;;;;;;4975471;28;20397;-43
2022/04/05 05:25:39;;;;;;;24.87;19.63;;;9.90;31.60;;;;;;4975924;28;20031;-44
2022/04/05 05:28:05;;;;;;;29.27;21.57;;;9.90;32.20;;;;;;4975149;28;20031;-42
2022/04/05 05:30:31;;;;;;;29.07;21.40;;;9.90;33.10;;;;;;4974802;28;20045;-43
2022/04/05 05:32:56;;;;;;;32.07;22.23;;;9.90;33.80;;;;;;4975035;28;20429;-44
2022/04/05 05:35:22;;;;;;;23.70;20.47;;;9.90;33.90;;;;;;4975538;28;20037;-45
2022/04/05 05:37:49;;;;;;;27.93;20.50;;;10.00;34.20;;;;;;4973132;28;20189;-42
2022/04/05 05:40:15;;;;;;;22.50;20.10;;;10.00;34.40;;;;;;4975272;28;20030;-42
2022/04/05 05:43:02;;;;;;;29.57;21.77;;;10.00;33.90;;;;;;4973972;28;20037;-43
2022/04/05 05:45:29;;;;;;;27.17;21.67;;;10.10;34.00;;;;;;4974764;28;20532;-42
2022/04/05 05:47:56;;;;;;;27.50;21.23;;;10.00;34.50;;;;;;4974842;28;20106;-42
2022/04/05 05:50:23;;;;;;;26.23;21.60;;;10.10;34.10;;;;;;4975283;28;20027;-42
2022/04/05 05:52:48;;;;;;;26.40;20.00;;;10.00;34.30;;;;;;4975481;28;20034;-43
2022/04/05 05:55:16;;;;;;;25.70;20.47;;;10.10;34.00;;;;;;4974403;28;20457;-42
2022/04/05 05:57:43;;;;;;;27.40;20.63;;;10.10;34.20;;;;;;4975135;28;20382;-43
2022/04/05 06:00:11;;;;;;;26.10;20.57;;;10.20;34.10;;;;;;4974474;28;20034;-43
2022/04/05 06:02:38;;;;;;;30.10;21.40;;;10.20;33.90;;;;;;4975568;28;20029;-42
2022/04/05 06:05:05;;;;;;;24.77;20.47;;;10.10;33.30;;;;;;4974206;28;20105;-42
2022/04/05 06:07:31;;;;;;;24.37;20.07;;;10.20;33.70;;;;;;4974958;28;20051;-42
2022/04/05 06:10:04;;;;;;;25.97;20.53;;;10.30;33.10;;;;;;4956522;28;20069;-42
2022/04/05 06:12:30;;;;;;;24.80;20.53;;;10.20;33.40;;;;;;4975178;28;20385;-42
2022/04/05 06:14:55;;;;;;;25.93;21.63;;;10.30;33.20;;;;;;4974389;28;20034;-42
2022/04/05 06:17:21;;;;;;;27.60;21.70;;;10.30;33.40;;;;;;4974723;28;20129;-42
2022/04/05 06:19:47;;;;;;;24.37;20.43;;;10.30;32.90;;;;;;4974007;28;20062;-42
2022/04/05 06:22:13;;;;;;;29.43;22.30;;;10.30;33.20;;;;;;4974099;28;20081;-42
2022/04/05 06:24:39;;;;;;;26.37;22.10;;;10.30;33.40;;;;;;4970693;28;20368;-42
2022/04/05 06:27:05;;;;;;;35.47;23.53;;;10.40;33.40;;;;;;4974967;28;20117;-42
2022/04/05 06:29:44;;;;;;;31.93;23.27;;;10.40;32.90;;;;;;4974121;28;20035;-43
2022/04/05 06:32:10;;;;;;;31.47;23.83;;;10.50;32.30;;;;;;4972859;28;20495;-42
2022/04/05 06:34:35;;;;;;;27.13;21.37;;;10.50;32.90;;;;;;4973014;28;20019;-43
2022/04/05 06:37:32;;;;;;;28.83;22.60;;;10.50;33.10;;;;;;4971684;28;20043;-42
2022/04/05 06:39:58;;;;;;;28.17;23.27;;;10.50;33.30;;;;;;4972351;28;20031;-42
2022/04/05 06:42:25;;;;;;;30.47;24.57;;;10.60;32.50;;;;;;4974019;28;20375;-42
2022/04/05 06:44:52;;;;;;;36.47;24.30;;;10.60;32.00;;;;;;4973676;28;20436;-42
2022/04/05 06:47:17;;;;;;;27.57;23.73;;;10.70;33.20;;;;;;4973881;28;20030;-43
2022/04/05 06:49:43;;;;;;;32.67;25.10;;;10.70;33.20;;;;;;4972620;28;20443;-41
2022/04/05 06:52:09;;;;;;;35.03;24.27;;;10.70;33.80;;;;;;4972870;28;20503;-42
2022/04/05 06:54:34;;;;;;;35.37;24.80;;;10.70;33.30;;;;;;4973381;28;20054;-42
2022/04/05 06:57:00;;;;;;;33.70;25.83;;;10.70;33.60;;;;;;4939326;28;20093;-42
2022/04/05 06:59:26;;;;;;;34.57;25.27;;;10.70;33.30;;;;;;4973435;28;20038;-42
2022/04/05 07:01:51;;;;;;;33.73;25.03;;;10.70;33.70;;;;;;4974128;28;20034;-42
2022/04/05 07:04:17;;;;;;;49.70;28.00;;;10.80;33.30;;;;;;4973337;28;20034;-42
2022/04/05 07:06:42;;;;;;;31.93;26.87;;;10.90;33.20;;;;;;4974072;28;20031;-43
2022/04/05 07:09:09;;;;;;;35.27;27.00;;;10.90;33.30;;;;;;4973120;28;20437;-42
2022/04/05 07:11:35;;;;;;;32.80;26.20;;;10.80;33.80;;;;;;4956519;28;20034;-42
2022/04/05 07:14:00;;;;;;;34.73;27.17;;;10.90;33.80;;;;;;4972986;28;20050;-42
2022/04/05 07:16:26;;;;;;;33.20;26.13;;;10.90;33.40;;;;;;4973625;28;20062;-42
2022/04/05 07:18:52;;;;;;;42.20;28.30;;;10.90;33.80;;;;;;4971962;28;20023;-42
2022/04/05 07:21:20;;;;;;;36.53;27.07;;;10.80;33.80;;;;;;4973642;28;20089;-42
2022/04/05 07:23:49;;;;;;;33.70;26.97;;;10.90;34.50;;;;;;4973256;28;20471;-44
2022/04/05 07:26:15;;;;;;;37.23;26.77;;;10.90;33.40;;;;;;4956305;28;20037;-44
2022/04/05 07:28:41;;;;;;;35.03;26.70;;;10.90;33.30;;;;;;4973415;28;20030;-42
2022/04/05 07:31:07;;;;;;;35.03;26.60;;;11.00;33.70;;;;;;4973010;28;20097;-43
2022/04/05 07:33:33;;;;;;;37.80;28.23;;;11.00;33.40;;;;;;4973440;28;20058;-43
2022/04/05 07:35:58;;;;;;;37.57;27.80;;;11.10;33.30;;;;;;4972491;28;20038;-43
2022/04/05 07:38:24;;;;;;;35.17;28.43;;;10.90;33.60;;;;;;4972453;28;20031;-43
2022/04/05 07:40:52;;;;;;;34.17;27.70;;;11.00;34.30;;;;;;4972474;28;20030;-43
2022/04/05 07:43:27;;;;;;;32.27;26.70;;;10.90;33.50;;;;;;4971109;28;20393;-45
2022/04/05 07:45:53;;;;;;;35.00;29.10;;;11.10;33.80;;;;;;4970711;28;20034;-45
2022/04/05 07:48:22;;;;;;;35.63;28.07;;;11.10;33.10;;;;;;4971300;28;20041;-43
2022/04/05 07:50:49;;;;;;;30.87;27.33;;;10.90;33.10;;;;;;4972126;28;20023;-43
2022/04/05 07:53:16;;;;;;;32.60;27.50;;;11.00;33.60;;;;;;4972630;28;20400;-42
2022/04/05 07:55:42;;;;;;;34.30;26.87;;;11.10;33.30;;;;;;4954082;28;20117;-42
2022/04/05 07:58:08;;;;;;;34.07;27.57;;;11.20;32.60;;;;;;4972761;28;20085;-43
2022/04/05 08:00:34;;;;;;;33.67;27.07;;;11.30;32.40;;;;;;4972137;28;20023;-42
2022/04/05 08:03:00;;;;;;;34.80;27.97;;;11.30;32.00;;;;;;4972405;28;20493;-42
2022/04/05 08:05:27;;;;;;;36.73;27.20;;;11.10;32.10;;;;;;4970555;28;20059;-42
2022/04/05 08:07:54;;;;;;;32.60;26.17;;;11.30;32.10;;;;;;4972434;28;20023;-43
2022/04/05 08:10:20;;;;;;;35.97;27.87;;;11.40;31.10;;;;;;4953895;28;20421;-42
2022/04/05 08:12:48;;;;;;;33.13;26.33;;;11.30;30.60;;;;;;4972754;28;20102;-43
2022/04/05 08:15:16;;;;;;;35.93;27.60;;;11.40;30.30;;;;;;4971788;28;20034;-44
2022/04/05 08:17:42;;;;;;;34.23;26.30;;;11.60;30.90;;;;;;4970874;28;20094;-42
2022/04/05 08:20:09;;;;;;;37.80;26.90;;;11.60;29.80;;;;;;4971602;28;20023;-42
2022/04/05 08:22:35;;;;;;;31.92;24.33;;;11.60;29.40;;;;;;4972435;28;20031;-42
2022/04/05 08:25:01;;;;;;;34.15;26.25;;;11.70;29.80;;;;;;4971516;28;20085;-42
2022/04/05 08:27:27;;;;;;;28.98;25.40;;;11.70;29.00;;;;;;4954763;28;20448;-44
2022/04/05 08:29:52;;;;;;;31.27;23.92;;;11.80;29.50;;;;;;4971711;28;20037;-43
2022/04/05 08:32:18;;;;;;;37.80;26.27;;;11.90;29.10;;;;;;4972259;28;20030;-42
2022/04/05 08:34:45;;;;;;;34.30;26.20;;;12.00;28.30;;;;;;4971353;28;20432;-43
2022/04/05 08:37:14;;;;;;;30.90;24.17;;;12.10;29.00;;;;;;4971611;28;20055;-43
2022/04/05 08:39:40;;;;;;;37.27;23.77;;;12.20;27.80;;;;;;4986338;28;20023;-53
2022/04/05 08:42:06;;;;;;;30.90;24.80;;;12.20;26.80;;;;;;4971790;28;20027;-42
2022/04/05 08:44:32;;;;;;;27.52;22.48;;;12.30;27.10;;;;;;4970902;28;20050;-41
2022/04/05 08:47:03;;;;;;;29.38;22.40;;;12.20;26.10;;;;;;4972663;28;20034;-42
2022/04/05 08:49:29;;;;;;;26.80;23.45;;;12.30;26.40;;;;;;4972164;28;20027;-42
2022/04/05 08:51:55;;;;;;;25.88;21.63;;;12.30;25.40;;;;;;4972624;28;20093;-42
2022/04/05 08:54:21;;;;;;;29.00;22.52;;;12.30;25.60;;;;;;4970630;28;20034;-43
2022/04/05 08:56:48;;;;;;;28.45;22.77;;;;;;;;;;4970894;28;20045;-42
2022/04/05 08:59:14;;;;;;;24.65;21.83;;;12.50;24.70;;;;;;4971944;28;20025;-43
2022/04/05 09:01:40;;;;;;;30.08;22.83;;;12.50;25.30;;;;;;4972460;28;20023;-42
2022/04/05 09:04:06;;;;;;;29.40;22.50;;;12.60;24.70;;;;;;4971489;28;20030;-43
2022/04/05 09:06:34;;;;;;;25.83;22.25;;;12.60;25.40;;;;;;4979623;28;20122;-43
2022/04/05 09:09:05;;;;;;;27.00;21.60;;;12.70;24.10;;;;;;4981127;28;20066;-42
2022/04/05 09:11:31;;;;;;;30.20;22.67;;;12.80;23.40;;;;;;4969570;28;20126;-42
2022/04/05 09:13:58;;;;;;;27.30;22.38;;;12.90;23.30;;;;;;4972013;28;20415;-42
2022/04/05 09:16:32;;;;;;;34.47;24.48;;;13.00;24.20;;;;;;4981434;28;20149;-43
2022/04/05 09:19:00;;;;;;;28.45;23.73;;;13.00;23.20;;;;;;4993165;28;20069;-45
2022/04/05 09:21:26;;;;;;;29.17;22.27;;;13.10;22.90;;;;;;4976389;28;20077;-43
2022/04/05 09:23:52;;;;;;;28.40;22.13;;;12.90;21.00;;;;;;4975479;28;20031;-43
2022/04/05 09:26:19;;;;;;;29.85;21.10;;;12.60;21.80;;;;;;4975070;28;20031;-44
2022/04/05 09:28:50;;;;;;;30.42;21.90;;;12.40;22.50;;;;;;4975910;28;20030;-43
2022/04/05 09:31:18;;;;;;;26.65;21.20;;;12.50;21.90;;;;;;4975125;28;20468;-43
2022/04/05 09:34:08;;;;;;;26.27;21.63;;;12.30;22.80;;;;;;4974450;28;20380;-43
2022/04/05 09:36:39;;;;;;;29.33;21.65;;;12.10;23.20;;;;;;4974620;28;20046;-43
2022/04/05 09:39:19;;;;;;;24.20;19.00;;;12.30;23.10;;;;;;4973524;28;20031;-42
2022/04/05 09:41:47;;;;;;;22.48;19.10;;;12.70;21.40;;;;;;4974324;28;20089;-42
2022/04/05 09:44:12;;;;;;;21.48;18.77;;;13.00;21.10;;;;;;4973426;28;20385;-44
2022/04/05 09:46:40;;;;;;;25.95;18.10;;;13.00;20.00;;;;;;4973246;28;20026;-43
2022/04/05 09:49:10;;;;;;;21.70;17.17;;;13.00;20.00;;;;;;4973523;28;20030;-44
2022/04/05 09:51:38;;;;;;;22.05;18.17;;;13.00;19.70;;;;;;4973900;28;20086;-42
2022/04/05 09:54:04;;;;;;;21.88;18.48;;;12.80;20.10;;;;;;4974434;28;20035;-43
2022/04/05 09:56:32;;;;;;;22.13;18.60;;;12.80;20.70;;;;;;4973794;28;20042;-43
2022/04/05 09:59:18;;;;;;;22.25;17.90;;;13.00;20.60;;;;;;4973650;28;20392;-43
2022/04/05 10:01:46;;;;;;;22.90;17.45;;;13.10;19.50;;;;;;4973123;28;20117;-43
2022/04/05 10:04:17;;;;;;;21.65;17.83;;;13.10;19.80;;;;;;4972941;28;20034;-42
2022/04/05 10:06:46;;;;;;;20.48;16.85;;;;;;;;;;4971236;28;20030;-42
2022/04/05 10:09:18;;;;;;;21.20;17.40;;;13.40;18.20;;;;;;4972729;28;20489;-45
2022/04/05 10:11:45;;;;;;;19.38;17.08;;;13.30;18.40;;;;;;4973972;28;20046;-43
2022/04/05 10:14:13;;;;;;;22.02;17.00;;;13.30;19.30;;;;;;4974249;28;20046;-43
2022/04/05 10:16:39;;;;;;;19.55;15.55;;;13.40;19.50;;;;;;4971564;28;20133;-44
2022/04/05 10:19:09;;;;;;;19.88;15.50;;;13.80;18.60;;;;;;4973105;28;20163;-43
2022/04/05 10:21:36;;;;;;;27.00;18.23;;;;;;;;;;4955860;28;20035;-43
2022/04/05 10:24:04;;;;;;;19.13;15.63;;;14.10;16.70;;;;;;4972715;28;20248;-44
2022/04/05 10:26:33;;;;;;;19.25;15.43;;;14.20;16.90;;;;;;4972125;28;20034;-44
2022/04/05 10:29:03;;;;;;;67.63;30.85;;;14.20;15.90;;;;;;4973298;28;20046;-43
2022/04/05 10:31:47;;;;;;;18.83;15.77;;;14.20;17.50;;;;;;4971584;28;20027;-43
2022/04/05 10:34:14;;;;;;;38.70;23.30;;;14.40;16.60;;;;;;4971361;28;20504;-43
2022/04/05 10:36:41;;;;;;;24.90;18.27;;;14.50;16.70;;;;;;4970778;28;20034;-43
2022/04/05 10:39:22;;;;;;;28.27;17.98;;;14.60;16.90;;;;;;4972495;28;20031;-44
2022/04/05 10:42:10;;;;;;;25.08;18.05;;;14.70;17.70;;;;;;4971284;28;20041;-43
2022/04/05 10:44:37;;;;;;;18.40;15.25;;;14.80;16.90;;;;;;4972524;28;20034;-44
2022/04/05 10:47:06;;;;;;;18.17;14.30;;;14.90;16.40;;;;;;4972087;28;20147;-43
2022/04/05 10:49:36;;;;;;;16.55;14.85;;;15.00;17.50;;;;;;4972494;28;20027;-41
2022/04/05 10:52:15;;;;;;;17.90;14.63;;;15.10;14.90;;;;;;4972197;28;20126;-42
2022/04/05 10:54:51;;;;;;;17.38;14.80;;;15.20;15.40;;;;;;4974388;28;20047;-42
2022/04/05 10:57:26;;;;;;;18.02;16.13;;;15.30;14.30;;;;;;4973073;28;20066;-42
2022/04/05 11:00:04;;;;;;;19.85;15.50;;;15.30;14.70;;;;;;4974365;28;20372;-43
2022/04/05 11:02:41;;;;;;;15.57;13.80;;;15.30;15.80;;;;;;4973708;28;20035;-43
2022/04/05 11:05:18;;;;;;;16.48;13.90;;;15.50;14.30;;;;;;4972169;28;20074;-43
2022/04/05 11:08:05;;;;;;;15.57;13.95;;;15.40;13.80;;;;;;4974038;28;20381;-45
2022/04/05 11:10:44;;;;;;;15.48;13.93;;;15.20;13.90;;;;;;4973361;28;20031;-44
2022/04/05 11:13:17;;;;;;;15.82;14.13;;;15.40;14.00;;;;;;4972743;28;20027;-43
2022/04/05 11:15:53;;;;;;;16.33;14.48;;;15.40;14.40;;;;;;4973458;28;20362;-44
2022/04/05 11:18:35;;;;;;;17.65;15.57;;;15.50;14.60;;;;;;4974266;28;20043;-47
2022/04/05 11:21:06;;;;;;;17.73;15.88;;;15.60;14.10;;;;;;4951562;28;20023;-43
2022/04/05 11:23:51;;;;;;;20.02;16.15;;;15.60;14.50;;;;;;4971824;28;20049;-43
2022/04/05 11:26:31;;;;;;;19.40;14.80;;;15.70;13.80;;;;;;4970876;28;20037;-43
2022/04/05 11:28:58;;;;;;;15.50;13.77;;;15.90;13.90;;;;;;4971458;28;20523;-43
2022/04/05 11:31:39;;;;;;;16.42;14.02;;;16.20;14.00;;;;;;4968389;28;20111;-43
2022/04/05 11:34:31;;;;;;;19.50;14.40;;;16.00;13.20;;;;;;4970235;28;20010;-43
2022/04/05 11:36:57;;;;;;;14.68;13.13;;;16.10;13.00;;;;;;4967284;28;20155;-42
2022/04/05 11:39:22;;;;;;;17.13;14.23;;;16.10;13.00;;;;;;4952725;28;20027;-41
2022/04/05 11:41:58;;;;;;;19.55;13.35;;;16.20;12.20;;;;;;4970184;28;20046;-42
2022/04/05 11:44:24;;;;;;;14.75;12.98;;;16.30;15.00;;;;;;4971303;28;20037;-41
2022/04/05 11:46:52;;;;;;;13.95;12.32;;;16.40;15.00;;;;;;4969953;28;20126;-41
2022/04/05 11:49:18;;;;;;;14.40;13.00;;;16.60;11.40;;;;;;4972388;28;20034;-41
2022/04/05 11:51:47;;;;;;;14.90;13.15;;;16.60;14.20;;;;;;4972713;28;20480;-43
2022/04/05 11:54:21;;;;;;;17.27;13.50;;;16.70;12.20;;;;;;4973327;28;20027;-41
2022/04/05 11:56:46;;;;;;;17.08;14.35;;;16.70;13.30;;;;;;4971609;28;20118;-40
2022/04/05 11:59:14;;;;;;;16.00;13.82;;;16.60;15.10;;;;;;4972440;28;20475;-40
2022/04/05 12:01:42;;;;;;;13.10;11.05;;;16.80;16.00;;;;;;4972955;28;20034;-40
2022/04/05 12:04:22;;;;;;;14.30;12.15;;;16.80;11.20;;;;;;4971886;28;20030;-40
2022/04/05 12:06:53;;;;;;;16.83;13.25;;;17.00;14.30;;;;;;4972101;28;20065;-41
2022/04/05 12:09:20;;;;;;;14.60;13.10;;;17.20;13.30;;;;;;4971884;28;20490;-40
2022/04/05 12:11:48;;;;;;;16.25;13.38;;;17.20;11.30;;;;;;4972246;28;20046;-43
2022/04/05 12:14:16;;;;;;;14.93;13.27;;;17.50;12.60;;;;;;4972328;28;20396;-44
2022/04/05 12:16:53;;;;;;;15.52;12.98;;;17.80;12.10;;;;;;4968938;28;20476;-42
2022/04/05 12:19:33;;;;;;;13.95;12.45;;;18.00;13.90;;;;;;4971782;28;20502;-43
2022/04/05 12:22:16;;;;;;;15.77;12.98;;;19.30;11.10;;;;;;4970954;28;20468;-43
2022/04/05 12:24:57;;;;;;;14.27;12.88;;;25.40;5.50;;;;;;4955633;28;20031;-44
2022/04/05 12:27:24;;;;;;;13.23;11.93;;;27.60;1.60;;;;;;4972984;28;20038;-45
2022/04/05 12:29:56;;;;;;;509.60;61.28;;;26.80;1.10;;;;;;4972580;28;20035;-42
2022/04/05 12:32:22;;;;;;;21.30;14.57;;;27.20;1.00;;;;;;4972754;28;20384;-42
2022/04/05 12:34:48;;;;;;;24.80;15.10;;;27.90;1.00;;;;;;4972965;28;20035;-42
2022/04/05 12:37:14;;;;;;;14.88;12.98;;;27.40;1.00;;;;;;4971314;28;20141;-44